Time;durP1;ratioP1;P1;durP2;ratioP2;P2;SDS_P1;SDS_P2;PMS_P1;PMS_P2;Temp;Humidity;BMP_temperature;BMP_pressure;BME280_temperature;BME280_humidity;BME280_pressure;Samples;Min_cycle;Max_cycle;Signal;HPM_P1;HPM_P2
2023/08/08 00:01:52;;;;;;;0.93;0.40;;;11.80;99.90;;;;;;5030621;28;20583;-56
2023/08/08 00:04:19;;;;;;;0.63;0.50;;;11.80;99.90;;;;;;5029306;28;20255;-55
2023/08/08 00:06:46;;;;;;;0.40;0.40;;;11.80;99.90;;;;;;5030709;28;20279;-56
2023/08/08 00:09:14;;;;;;;0.37;0.37;;;11.80;99.90;;;;;;5030710;28;20274;-56
2023/08/08 00:11:41;;;;;;;0.80;0.37;;;11.70;99.90;;;;;;5030663;28;20916;-56
2023/08/08 00:14:08;;;;;;;0.40;0.40;;;11.80;99.90;;;;;;5021085;28;20202;-56
2023/08/08 00:16:35;;;;;;;0.33;0.33;;;11.70;99.90;;;;;;5022987;28;20234;-55
2023/08/08 00:19:03;;;;;;;0.50;0.30;;;11.70;99.90;;;;;;5029330;28;20713;-54
2023/08/08 00:21:30;;;;;;;2.30;1.03;;;11.70;99.90;;;;;;5030775;28;20231;-55
2023/08/08 00:23:57;;;;;;;0.40;0.40;;;11.70;99.90;;;;;;5020834;28;20217;-56
2023/08/08 00:26:25;;;;;;;2.13;0.40;;;11.70;99.90;;;;;;5030496;28;20229;-56
2023/08/08 00:28:52;;;;;;;0.30;0.30;;;11.70;99.90;;;;;;5022797;28;20352;-60
2023/08/08 00:31:19;;;;;;;0.63;0.50;;;11.70;99.90;;;;;;5017911;28;20209;-50
2023/08/08 00:33:46;;;;;;;0.47;0.30;;;11.80;99.90;;;;;;5017478;28;20210;-49
2023/08/08 00:36:13;;;;;;;1.57;0.43;;;11.80;99.90;;;;;;5030634;28;20245;-53
2023/08/08 00:38:40;;;;;;;3.03;0.40;;;11.90;99.90;;;;;;5022453;28;20219;-51
2023/08/08 00:41:07;;;;;;;0.50;0.50;;;11.90;99.90;;;;;;5015035;28;20229;-51
2023/08/08 00:43:36;;;;;;;0.40;0.40;;;11.90;99.90;;;;;;5022835;28;20206;-56
2023/08/08 00:46:03;;;;;;;0.47;0.40;;;11.90;99.90;;;;;;5025036;28;20230;-49
2023/08/08 00:48:30;;;;;;;0.30;0.30;;;11.90;99.90;;;;;;5024847;28;20263;-49
2023/08/08 00:50:59;;;;;;;1.37;0.40;;;11.80;99.90;;;;;;5026818;28;20212;-49
2023/08/08 00:53:28;;;;;;;0.47;0.30;;;11.80;99.90;;;;;;5022932;28;20629;-49
2023/08/08 00:55:55;;;;;;;0.40;0.40;;;11.90;99.90;;;;;;5030870;28;20870;-49
2023/08/08 00:58:22;;;;;;;1.43;0.50;;;11.90;99.90;;;;;;5034171;28;20781;-49
2023/08/08 01:00:52;;;;;;;1.23;0.30;;;11.90;99.90;;;;;;5017045;28;20275;-51
2023/08/08 01:03:19;;;;;;;0.80;0.53;;;11.90;99.90;;;;;;5014722;28;20213;-49
2023/08/08 01:05:53;;;;;;;0.60;0.60;;;11.90;99.90;;;;;;5018010;28;20249;-49
2023/08/08 01:08:28;;;;;;;0.53;0.37;;;11.80;99.90;;;;;;5030741;28;20578;-49
2023/08/08 01:10:55;;;;;;;1.40;0.67;;;11.80;99.90;;;;;;5034478;28;20205;-49
2023/08/08 01:13:25;;;;;;;0.60;0.50;;;11.70;99.90;;;;;;5034240;28;20204;-49
2023/08/08 01:15:56;;;;;;;0.83;0.40;;;11.70;99.90;;;;;;5034352;28;20237;-49
2023/08/08 01:18:23;;;;;;;0.50;0.50;;;11.60;99.90;;;;;;5024960;28;20230;-49
2023/08/08 01:20:53;;;;;;;2.43;0.40;;;11.50;99.90;;;;;;5031053;28;20292;-49
2023/08/08 01:23:27;;;;;;;0.47;0.47;;;11.60;99.90;;;;;;5033244;28;20255;-49
2023/08/08 01:25:56;;;;;;;0.93;0.50;;;11.60;99.90;;;;;;5034215;28;20227;-49
2023/08/08 01:28:23;;;;;;;0.50;0.30;;;11.50;99.90;;;;;;5033373;28;20207;-49
2023/08/08 01:30:50;;;;;;;0.40;0.40;;;11.50;99.90;;;;;;5030683;28;20197;-49
2023/08/08 01:33:18;;;;;;;4.40;0.70;;;11.40;99.90;;;;;;5033823;28;20260;-48
2023/08/08 01:35:48;;;;;;;0.57;0.57;;;11.40;99.90;;;;;;5033765;28;20225;-49
2023/08/08 01:38:21;;;;;;;0.57;0.40;;;11.40;99.90;;;;;;5033997;28;20280;-49
2023/08/08 01:40:48;;;;;;;0.30;0.30;;;11.30;99.90;;;;;;5030626;28;20255;-49
2023/08/08 01:43:19;;;;;;;2.00;0.50;;;11.30;99.90;;;;;;5032624;28;20197;-50
2023/08/08 01:45:47;;;;;;;0.30;0.30;;;11.30;99.90;;;;;;5032263;28;20313;-49
2023/08/08 01:48:14;;;;;;;0.50;0.50;;;11.30;99.90;;;;;;5033676;28;20216;-48
2023/08/08 01:50:41;;;;;;;1.33;0.30;;;11.20;99.90;;;;;;5024850;28;20247;-49
2023/08/08 01:53:07;;;;;;;0.20;0.20;;;11.30;99.90;;;;;;5020840;28;20306;-49
2023/08/08 01:55:34;;;;;;;0.60;0.60;;;11.30;99.90;;;;;;5028926;28;20204;-49
2023/08/08 01:58:01;;;;;;;0.30;0.30;;;11.20;99.90;;;;;;5032852;28;20742;-49
2023/08/08 02:00:30;;;;;;;0.40;0.40;;;11.30;99.90;;;;;;5033531;28;20632;-49
2023/08/08 02:02:59;;;;;;;1.03;0.40;;;11.20;99.90;;;;;;5032626;28;20287;-49
2023/08/08 02:05:26;;;;;;;1.00;0.50;;;11.20;99.90;;;;;;5032640;28;20201;-49
2023/08/08 02:07:53;;;;;;;1.23;0.50;;;11.20;99.90;;;;;;5024206;28;20265;-49
2023/08/08 02:10:20;;;;;;;0.30;0.30;;;11.10;99.90;;;;;;5033224;28;20201;-49
2023/08/08 02:12:47;;;;;;;0.40;0.37;;;11.10;99.90;;;;;;5033050;28;20205;-49
2023/08/08 02:15:14;;;;;;;1.13;0.60;;;11.20;99.90;;;;;;5027241;28;20260;-49
2023/08/08 02:17:42;;;;;;;0.30;0.30;;;11.20;99.90;;;;;;5028023;28;20296;-49
2023/08/08 02:20:11;;;;;;;2.63;0.40;;;11.20;99.90;;;;;;5021451;28;20197;-49
2023/08/08 02:22:39;;;;;;;0.40;0.40;;;11.20;99.90;;;;;;5028083;28;20283;-49
2023/08/08 02:25:06;;;;;;;0.50;0.50;;;11.20;99.90;;;;;;5029317;28;20222;-49
2023/08/08 02:27:33;;;;;;;0.50;0.50;;;11.20;99.90;;;;;;5028230;28;20221;-49
2023/08/08 02:30:00;;;;;;;0.73;0.73;;;11.20;99.90;;;;;;5029582;28;20611;-49
2023/08/08 02:32:27;;;;;;;0.50;0.40;;;11.20;99.90;;;;;;5029989;28;20255;-49
2023/08/08 02:34:55;;;;;;;1.20;0.87;;;11.20;99.90;;;;;;5026552;28;20315;-49
2023/08/08 02:37:23;;;;;;;0.73;0.60;;;11.20;99.90;;;;;;5028657;28;20293;-48
2023/08/08 02:39:50;;;;;;;0.30;0.30;;;11.20;99.90;;;;;;5019915;28;20697;-49
2023/08/08 02:42:17;;;;;;;1.50;0.37;;;11.20;99.90;;;;;;5027723;28;20550;-48
2023/08/08 02:44:44;;;;;;;1.50;0.30;;;11.10;99.90;;;;;;5023279;28;20259;-49
2023/08/08 02:47:11;;;;;;;0.40;0.40;;;11.10;99.90;;;;;;5030274;28;20278;-49
2023/08/08 02:49:38;;;;;;;1.27;0.33;;;11.20;99.90;;;;;;5029587;28;20672;-49
2023/08/08 02:52:07;;;;;;;0.43;0.30;;;11.20;99.90;;;;;;5022878;28;20206;-48
2023/08/08 02:54:34;;;;;;;0.40;0.40;;;11.20;99.90;;;;;;5030205;28;20209;-49
2023/08/08 02:57:01;;;;;;;1.80;0.43;;;11.10;99.90;;;;;;5031780;28;20237;-49
2023/08/08 02:59:28;;;;;;;0.70;0.60;;;11.00;99.90;;;;;;5028444;28;20267;-49
2023/08/08 03:01:55;;;;;;;0.70;0.30;;;11.00;99.90;;;;;;5024843;28;20251;-49
2023/08/08 03:04:22;;;;;;;0.50;0.50;;;11.00;99.90;;;;;;5024985;28;20539;-49
2023/08/08 03:06:49;;;;;;;0.93;0.70;;;11.00;99.90;;;;;;5028241;28;20229;-48
2023/08/08 03:09:18;;;;;;;1.70;0.33;;;11.10;99.90;;;;;;5026623;28;20664;-48
2023/08/08 03:11:44;;;;;;;0.43;0.43;;;11.00;99.90;;;;;;5019675;28;20609;-49
2023/08/08 03:14:12;;;;;;;0.40;0.40;;;11.00;99.90;;;;;;5027644;28;20268;-49
2023/08/08 03:16:39;;;;;;;0.70;0.70;;;10.90;99.90;;;;;;5027293;28;20229;-49
2023/08/08 03:19:06;;;;;;;0.93;0.77;;;10.80;99.90;;;;;;5029921;28;20225;-49
2023/08/08 03:21:33;;;;;;;2.13;0.70;;;10.80;99.90;;;;;;5026024;28;20670;-49
2023/08/08 03:24:00;;;;;;;1.53;0.80;;;10.80;99.90;;;;;;5030561;28;20219;-49
2023/08/08 03:26:28;;;;;;;1.33;0.70;;;10.80;99.90;;;;;;5030771;28;20222;-49
2023/08/08 03:28:55;;;;;;;1.17;0.70;;;10.80;99.90;;;;;;5029653;28;20278;-48
2023/08/08 03:31:23;;;;;;;1.63;1.03;;;10.70;99.90;;;;;;5027546;28;20208;-49
2023/08/08 03:33:50;;;;;;;0.67;0.67;;;10.70;99.90;;;;;;5031371;28;20201;-48
2023/08/08 03:36:17;;;;;;;0.80;0.80;;;10.70;99.90;;;;;;5030852;28;20715;-48
2023/08/08 03:38:45;;;;;;;1.20;1.20;;;10.70;99.90;;;;;;5023199;28;20287;-48
2023/08/08 03:41:13;;;;;;;1.50;0.40;;;10.70;99.90;;;;;;5024714;28;20204;-49
2023/08/08 03:43:41;;;;;;;1.47;0.70;;;10.70;99.90;;;;;;5027341;28;20251;-49
2023/08/08 03:46:08;;;;;;;0.70;0.70;;;10.70;99.90;;;;;;5021405;28;20253;-49
2023/08/08 03:48:35;;;;;;;0.80;0.40;;;10.60;99.90;;;;;;5021191;28;20205;-49
2023/08/08 03:51:03;;;;;;;2.20;0.60;;;10.60;99.90;;;;;;5024123;28;20213;-49
2023/08/08 03:53:30;;;;;;;0.60;0.60;;;10.60;99.90;;;;;;5023878;28;20288;-48
2023/08/08 03:55:57;;;;;;;2.57;0.73;;;10.60;99.90;;;;;;5023668;28;20298;-49
2023/08/08 03:58:24;;;;;;;0.70;0.70;;;10.50;99.90;;;;;;5020720;28;20709;-49
2023/08/08 04:00:52;;;;;;;0.40;0.40;;;10.40;99.90;;;;;;5026943;28;20250;-49
2023/08/08 04:03:19;;;;;;;0.50;0.50;;;10.40;99.90;;;;;;5022894;28;20209;-49
2023/08/08 04:05:47;;;;;;;0.90;0.33;;;10.30;99.90;;;;;;5022756;28;20701;-49
2023/08/08 04:08:14;;;;;;;1.57;0.40;;;10.30;99.90;;;;;;5020275;28;20297;-49
2023/08/08 04:10:41;;;;;;;0.70;0.40;;;10.30;99.90;;;;;;5024816;28;20198;-49
2023/08/08 04:13:08;;;;;;;0.53;0.50;;;10.30;99.90;;;;;;5021829;28;20200;-49
2023/08/08 04:15:35;;;;;;;1.03;0.60;;;10.20;99.90;;;;;;5022700;28;20587;-49
2023/08/08 04:18:06;;;;;;;1.90;0.40;;;10.20;99.90;;;;;;5030936;28;20204;-49
2023/08/08 04:20:34;;;;;;;0.60;0.60;;;10.20;99.90;;;;;;5031199;28;20208;-49
2023/08/08 04:23:01;;;;;;;1.20;0.60;;;10.20;99.90;;;;;;5030713;28;20219;-49
2023/08/08 04:25:28;;;;;;;0.73;0.70;;;10.10;99.90;;;;;;5028194;28;20205;-49
2023/08/08 04:27:57;;;;;;;0.60;0.60;;;10.10;99.90;;;;;;5046899;23;20272;-53
2023/08/08 04:30:24;;;;;;;0.80;0.70;;;10.10;99.90;;;;;;5035531;28;20655;-54
2023/08/08 04:32:51;;;;;;;0.97;0.57;;;10.10;99.90;;;;;;5041887;28;20281;-54
2023/08/08 04:35:20;;;;;;;0.47;0.40;;;10.10;99.90;;;;;;5024982;28;20195;-54
2023/08/08 04:37:47;;;;;;;1.83;0.50;;;10.20;99.90;;;;;;5023666;28;21008;-53
2023/08/08 04:40:14;;;;;;;0.70;0.60;;;10.20;99.90;;;;;;5016499;28;20222;-54
2023/08/08 04:42:42;;;;;;;0.77;0.60;;;10.20;99.90;;;;;;5016357;28;20663;-54
2023/08/08 04:45:09;;;;;;;0.57;0.50;;;10.30;99.90;;;;;;5010371;28;20206;-53
2023/08/08 04:47:36;;;;;;;1.80;0.70;;;10.30;99.90;;;;;;5018494;28;20224;-55
2023/08/08 04:50:04;;;;;;;0.87;0.63;;;10.50;99.90;;;;;;5015380;28;20256;-53
2023/08/08 04:52:32;;;;;;;1.70;0.60;;;10.60;99.90;;;;;;5015412;28;20201;-52
2023/08/08 04:54:59;;;;;;;0.47;0.43;;;10.80;99.90;;;;;;5025853;28;20622;-53
2023/08/08 04:57:26;;;;;;;0.47;0.43;;;11.00;99.90;;;;;;5014315;28;20248;-53
2023/08/08 04:59:53;;;;;;;2.00;0.67;;;11.30;99.90;;;;;;5016164;28;20219;-54
2023/08/08 05:02:20;;;;;;;1.93;0.80;;;11.70;99.90;;;;;;5018164;28;20230;-53
2023/08/08 05:04:47;;;;;;;0.40;0.40;;;12.20;99.90;;;;;;5019924;28;20207;-53
2023/08/08 05:07:14;;;;;;;0.60;0.60;;;12.80;99.90;;;;;;5015876;28;22108;-53
2023/08/08 05:09:42;;;;;;;0.97;0.50;;;13.30;99.90;;;;;;5019063;28;20237;-53
2023/08/08 05:12:09;;;;;;;0.83;0.70;;;14.00;99.90;;;;;;5017233;28;20202;-53
2023/08/08 05:14:36;;;;;;;0.50;0.50;;;14.70;99.90;;;;;;5014723;28;20754;-55
2023/08/08 05:17:04;;;;;;;0.50;0.50;;;15.10;99.90;;;;;;5026044;28;20199;-53
2023/08/08 05:19:31;;;;;;;0.50;0.50;;;15.60;99.90;;;;;;5034728;28;20735;-54
2023/08/08 05:21:58;;;;;;;9.53;1.17;;;15.90;99.90;;;;;;5006978;28;20208;-54
2023/08/08 05:24:24;;;;;;;1.17;0.83;;;16.20;99.90;;;;;;4995173;28;20265;-54
2023/08/08 05:26:53;;;;;;;0.50;0.50;;;16.50;99.90;;;;;;4995345;28;20204;-54
2023/08/08 05:29:20;;;;;;;1.30;0.50;;;17.00;99.90;;;;;;4995198;28;20294;-54
2023/08/08 05:31:48;;;;;;;0.60;0.60;;;17.40;99.90;;;;;;5012102;28;20261;-53
2023/08/08 05:34:15;;;;;;;0.67;0.50;;;17.80;99.90;;;;;;5016255;28;20211;-54
2023/08/08 05:36:42;;;;;;;1.23;0.77;;;17.80;99.90;;;;;;5018791;28;20202;-54
2023/08/08 05:39:09;;;;;;;1.20;0.50;;;17.80;99.90;;;;;;5014677;28;20251;-53
2023/08/08 05:41:36;;;;;;;0.57;0.57;;;17.60;99.90;;;;;;5015482;28;20210;-56
2023/08/08 05:44:05;;;;;;;3.83;2.10;;;17.60;99.90;;;;;;5019288;28;20202;-54
2023/08/08 05:46:32;;;;;;;0.50;0.50;;;17.50;99.90;;;;;;5027646;28;20281;-54
2023/08/08 05:48:59;;;;;;;0.50;0.50;;;17.50;99.90;;;;;;5011360;28;20219;-54
2023/08/08 05:51:25;;;;;;;0.60;0.47;;;17.30;99.90;;;;;;5013767;28;20234;-55
2023/08/08 05:53:52;;;;;;;1.40;1.30;;;17.30;99.90;;;;;;5014034;28;20549;-54
2023/08/08 05:56:20;;;;;;;0.30;0.30;;;17.20;99.90;;;;;;5013038;28;20207;-55
2023/08/08 05:58:47;;;;;;;0.50;0.50;;;17.50;99.90;;;;;;5013650;28;20262;-54
2023/08/08 06:01:15;;;;;;;1.37;0.63;;;17.30;99.90;;;;;;5021608;28;20558;-56
2023/08/08 06:03:42;;;;;;;0.50;0.50;;;17.20;99.90;;;;;;5011609;28;20654;-54
2023/08/08 06:06:09;;;;;;;0.60;0.60;;;17.50;99.90;;;;;;5010829;28;20269;-54
2023/08/08 06:08:36;;;;;;;0.67;0.60;;;17.60;99.90;;;;;;5012825;28;20227;-56
2023/08/08 06:11:03;;;;;;;3.83;0.80;;;17.60;99.90;;;;;;5012881;28;20234;-54
2023/08/08 06:13:30;;;;;;;1.17;0.77;;;17.80;99.90;;;;;;5014655;28;20977;-54
2023/08/08 06:15:57;;;;;;;1.60;0.70;;;18.00;99.90;;;;;;5017684;28;20194;-55
2023/08/08 06:18:25;;;;;;;1.23;0.70;;;18.20;99.90;;;;;;5013201;28;20226;-54
2023/08/08 06:20:52;;;;;;;2.00;0.53;;;18.50;99.90;;;;;;5016875;28;20203;-54
2023/08/08 06:23:19;;;;;;;0.83;0.83;;;18.80;99.90;;;;;;5017239;28;20242;-55
2023/08/08 06:25:46;;;;;;;0.53;0.50;;;19.30;99.90;;;;;;5031771;28;20378;-54
2023/08/08 06:28:12;;;;;;;0.50;0.50;;;19.40;99.90;;;;;;5020000;28;20234;-55
2023/08/08 06:30:39;;;;;;;1.80;0.57;;;19.80;99.90;;;;;;5014089;28;20248;-54
2023/08/08 06:33:06;;;;;;;1.50;0.77;;;19.70;99.90;;;;;;5014376;28;20272;-55
2023/08/08 06:35:35;;;;;;;0.70;0.60;;;19.30;99.90;;;;;;5014381;28;20242;-54
2023/08/08 06:38:02;;;;;;;1.27;0.70;;;18.90;99.90;;;;;;5012355;28;20218;-54
2023/08/08 06:40:30;;;;;;;1.23;0.90;;;18.60;99.90;;;;;;5017269;28;20218;-54
2023/08/08 06:42:59;;;;;;;1.70;0.77;;;18.50;99.90;;;;;;5009674;28;21009;-53
2023/08/08 06:45:26;;;;;;;1.30;0.87;;;18.80;99.90;;;;;;5014540;28;20199;-53
2023/08/08 06:47:57;;;;;;;1.50;0.80;;;19.30;99.90;;;;;;5013364;28;20218;-54
2023/08/08 06:50:24;;;;;;;0.90;0.90;;;19.80;99.90;;;;;;5015034;28;20296;-54
2023/08/08 06:52:53;;;;;;;0.50;0.50;;;19.70;99.90;;;;;;5015747;28;20198;-54
2023/08/08 06:55:20;;;;;;;0.70;0.70;;;19.40;99.90;;;;;;5013109;28;20250;-54
2023/08/08 06:57:47;;;;;;;1.70;0.87;;;19.30;99.90;;;;;;5011408;28;20277;-53
2023/08/08 07:00:16;;;;;;;0.73;0.60;;;18.90;99.90;;;;;;5013879;28;22157;-54
2023/08/08 07:02:43;;;;;;;0.90;0.90;;;18.90;99.90;;;;;;5015902;28;20202;-54
2023/08/08 07:05:10;;;;;;;0.93;0.93;;;18.70;99.90;;;;;;5015018;28;20202;-54
2023/08/08 07:07:38;;;;;;;1.37;0.90;;;18.70;99.90;;;;;;5013852;28;20219;-54
2023/08/08 07:10:07;;;;;;;1.03;0.93;;;18.40;99.90;;;;;;5011179;28;20227;-54
2023/08/08 07:12:34;;;;;;;1.07;0.57;;;17.90;99.90;;;;;;5019570;28;20209;-54
2023/08/08 07:15:01;;;;;;;0.50;0.50;;;18.20;99.90;;;;;;5016016;28;20253;-54
2023/08/08 07:17:28;;;;;;;0.80;0.60;;;18.30;99.90;;;;;;5010455;28;20274;-54
2023/08/08 07:19:56;;;;;;;0.60;0.60;;;18.60;99.90;;;;;;5016601;28;20713;-54
2023/08/08 07:22:23;;;;;;;0.70;0.70;;;19.00;99.90;;;;;;5019830;28;20229;-54
2023/08/08 07:24:50;;;;;;;0.60;0.50;;;19.80;99.90;;;;;;5018762;28;20199;-54
2023/08/08 07:27:18;;;;;;;0.50;0.50;;;19.70;99.90;;;;;;5019552;28;20279;-54
2023/08/08 07:29:45;;;;;;;0.47;0.47;;;20.40;99.90;;;;;;5019311;28;20195;-55
2023/08/08 07:32:12;;;;;;;0.50;0.50;;;20.90;99.90;;;;;;5015359;28;20459;-53
2023/08/08 07:34:39;;;;;;;0.50;0.50;;;21.60;99.90;;;;;;5018314;28;20203;-61
2023/08/08 07:37:07;;;;;;;0.50;0.50;;;21.70;99.90;;;;;;5005331;28;20199;-65
2023/08/08 07:39:34;;;;;;;1.00;0.70;;;21.90;99.90;;;;;;5010652;28;20262;-67
2023/08/08 07:42:01;;;;;;;0.50;0.50;;;21.40;99.90;;;;;;5014600;28;20237;-67
2023/08/08 07:44:31;;;;;;;0.40;0.40;;;21.20;99.90;;;;;;5015880;28;20328;-65
2023/08/08 07:46:58;;;;;;;1.73;0.60;;;21.00;99.90;;;;;;5018589;28;20194;-65
2023/08/08 07:49:27;;;;;;;0.57;0.40;;;21.50;99.90;;;;;;5018081;28;20234;-64
2023/08/08 07:51:54;;;;;;;0.50;0.50;;;21.70;99.90;;;;;;5014588;28;20199;-64
2023/08/08 07:54:21;;;;;;;0.40;0.40;;;21.90;99.90;;;;;;5010259;28;20261;-66
2023/08/08 07:56:48;;;;;;;0.50;0.50;;;21.80;99.90;;;;;;5014645;28;20205;-67
2023/08/08 07:59:16;;;;;;;1.00;0.47;;;22.10;99.90;;;;;;5011102;28;20223;-65
2023/08/08 08:01:44;;;;;;;1.53;0.40;;;22.70;99.90;;;;;;5011340;28;20207;-66
2023/08/08 08:04:11;;;;;;;0.30;0.30;;;23.20;99.90;;;;;;5010012;28;20195;-70
2023/08/08 08:06:38;;;;;;;2.13;0.60;;;23.50;99.90;;;;;;5008693;28;20876;-68
2023/08/08 08:09:05;;;;;;;1.10;0.80;;;24.10;99.90;;;;;;5012526;28;20230;-67
2023/08/08 08:11:32;;;;;;;2.20;0.70;;;23.50;99.90;;;;;;5011988;28;20611;-68
2023/08/08 08:13:59;;;;;;;1.70;0.40;;;23.20;99.90;;;;;;5019882;28;20260;-72
2023/08/08 08:16:26;;;;;;;1.50;0.50;;;23.20;99.90;;;;;;5017650;28;20199;-70
2023/08/08 08:18:55;;;;;;;1.13;0.30;;;22.90;99.90;;;;;;5018475;28;20223;-70
2023/08/08 08:21:22;;;;;;;0.40;0.40;;;22.20;99.90;;;;;;5009891;28;20269;-69
2023/08/08 08:23:49;;;;;;;1.17;0.50;;;22.60;99.90;;;;;;5009699;28;20210;-65
2023/08/08 08:26:16;;;;;;;0.70;0.70;;;23.20;99.90;;;;;;5021875;28;20276;-55
2023/08/08 08:28:43;;;;;;;2.50;0.60;;;23.40;99.90;;;;;;5011895;28;20234;-55
2023/08/08 08:31:10;;;;;;;0.73;0.57;;;23.90;99.90;;;;;;5009233;28;20635;-64
2023/08/08 08:33:37;;;;;;;0.37;0.37;;;24.40;99.90;;;;;;5014103;28;20657;-65
2023/08/08 08:36:06;;;;;;;2.10;0.40;;;24.70;99.90;;;;;;5020754;28;20586;-55
2023/08/08 08:38:33;;;;;;;1.53;0.40;;;24.20;99.90;;;;;;5015219;28;20281;-60
2023/08/08 08:41:00;;;;;;;0.97;0.50;;;23.90;99.90;;;;;;5011863;28;20230;-62
2023/08/08 08:43:27;;;;;;;0.40;0.40;;;24.00;99.90;;;;;;5014695;28;20195;-61
2023/08/08 08:45:55;;;;;;;0.93;0.77;;;24.30;99.90;;;;;;5008815;28;20610;-61
2023/08/08 08:48:23;;;;;;;1.33;0.50;;;24.80;99.90;;;;;;5011069;28;20276;-56
2023/08/08 08:50:50;;;;;;;2.03;1.50;;;24.70;99.90;;;;;;5020819;28;20198;-54
2023/08/08 08:53:18;;;;;;;1.20;1.10;;;25.00;99.90;;;;;;5013460;28;20229;-55
2023/08/08 08:55:46;;;;;;;0.47;0.47;;;25.30;99.90;;;;;;5015766;28;20211;-56
2023/08/08 08:58:16;;;;;;;0.60;0.60;;;25.40;99.90;;;;;;5011722;28;20309;-54
2023/08/08 09:00:45;;;;;;;0.90;0.57;;;25.60;99.90;;;;;;5012966;28;20227;-56
2023/08/08 09:03:12;;;;;;;0.40;0.40;;;26.00;99.90;;;;;;5022533;28;20625;-54
2023/08/08 09:05:41;;;;;;;0.60;0.60;;;25.50;99.90;;;;;;5014967;28;20203;-54
2023/08/08 09:08:09;;;;;;;0.70;0.70;;;25.60;99.90;;;;;;5008232;28;21344;-55
2023/08/08 09:10:37;;;;;;;0.40;0.40;;;26.10;99.90;;;;;;5014225;28;20660;-56
2023/08/08 09:13:05;;;;;;;0.43;0.43;;;25.80;99.90;;;;;;5009606;28;20781;-55
2023/08/08 09:15:32;;;;;;;0.30;0.30;;;26.20;99.90;;;;;;5021459;28;20202;-54
2023/08/08 09:18:01;;;;;;;0.50;0.50;;;26.60;99.90;;;;;;5030221;28;20241;-63
2023/08/08 09:20:29;;;;;;;0.93;0.40;;;26.50;99.90;;;;;;5021223;28;20230;-62
2023/08/08 09:22:59;;;;;;;0.50;0.40;;;26.40;99.90;;;;;;5016325;28;20207;-62
2023/08/08 09:25:27;;;;;;;0.30;0.30;;;26.50;99.90;;;;;;5019638;28;20217;-63
2023/08/08 09:27:58;;;;;;;0.67;0.40;;;26.70;99.90;;;;;;5026278;28;20277;-63
2023/08/08 09:30:26;;;;;;;1.20;0.40;;;26.90;99.90;;;;;;5022123;28;20203;-64
2023/08/08 09:32:53;;;;;;;1.45;0.40;;;26.80;99.90;;;;;;5011559;28;20202;-67
2023/08/08 09:35:23;;;;;;;0.52;0.50;;;27.00;99.90;;;;;;5023170;28;20202;-68
2023/08/08 09:37:53;;;;;;;0.50;0.50;;;26.80;99.90;;;;;;5026040;28;20281;-56
2023/08/08 09:40:21;;;;;;;11.70;0.82;;;27.10;99.50;;;;;;5016793;28;20701;-63
2023/08/08 09:42:48;;;;;;;0.30;0.30;;;26.70;99.90;;;;;;5024142;28;20234;-65
2023/08/08 09:45:17;;;;;;;0.47;0.47;;;26.30;99.80;;;;;;5027569;28;20203;-64
2023/08/08 09:47:44;;;;;;;0.50;0.50;;;26.30;99.10;;;;;;5021767;28;20223;-64
2023/08/08 09:50:11;;;;;;;0.47;0.47;;;26.40;99.90;;;;;;5015203;28;20195;-64
2023/08/08 09:52:39;;;;;;;0.85;0.40;;;26.80;99.90;;;;;;5026707;28;20199;-64
2023/08/08 09:55:07;;;;;;;0.55;0.45;;;27.00;99.90;;;;;;5014850;28;20206;-65
2023/08/08 09:57:34;;;;;;;2.42;0.52;;;27.70;98.10;;;;;;5020526;28;20229;-55
2023/08/08 10:00:05;;;;;;;0.25;0.25;;;27.90;99.20;;;;;;5025598;28;20266;-61
2023/08/08 10:02:34;;;;;;;1.25;0.40;;;27.90;94.20;;;;;;5026374;28;20195;-62
2023/08/08 10:05:02;;;;;;;0.50;0.50;;;27.30;95.00;;;;;;5019823;28;20272;-64
2023/08/08 10:07:30;;;;;;;1.23;0.32;;;27.70;98.40;;;;;;5013487;28;20304;-66
2023/08/08 10:09:57;;;;;;;0.88;0.63;;;28.00;94.90;;;;;;5017782;28;20207;-67
2023/08/08 10:12:26;;;;;;;1.95;0.50;;;28.50;96.90;;;;;;5014648;28;20207;-69
2023/08/08 10:14:53;;;;;;;0.70;0.52;;;28.50;96.00;;;;;;5015168;28;20199;-64
2023/08/08 10:17:20;;;;;;;1.58;0.40;;;29.00;96.80;;;;;;5020215;28;20647;-65
2023/08/08 10:19:56;;;;;;;0.52;0.52;;;28.40;97.50;;;;;;5013865;28;20265;-64
2023/08/08 10:22:24;;;;;;;1.30;0.40;;;28.20;99.00;;;;;;5021834;28;20256;-65
2023/08/08 10:24:54;;;;;;;1.30;0.40;;;27.90;99.10;;;;;;5013331;28;20254;-66
2023/08/08 10:29:52;;;;;;;0.55;0.50;;;27.60;97.10;;;;;;4990140;28;20466;-60
2023/08/08 10:32:25;;;;;;;0.60;0.60;;;27.90;97.90;;;;;;4996602;28;20263;-58
2023/08/08 10:34:56;;;;;;;0.88;0.60;;;27.20;99.90;;;;;;4993918;28;20697;-52
2023/08/08 10:37:24;;;;;;;0.73;0.73;;;27.30;96.00;;;;;;4987156;28;20207;-51
2023/08/08 10:39:54;;;;;;;1.30;0.40;;;26.80;96.10;;;;;;4993681;28;20287;-51
2023/08/08 10:42:23;;;;;;;0.50;0.47;;;27.20;98.30;;;;;;4990487;28;20776;-52
2023/08/08 10:44:53;;;;;;;0.82;0.73;;;26.80;99.90;;;;;;4992471;28;20271;-50
2023/08/08 10:47:23;;;;;;;0.85;0.68;;;26.90;99.30;;;;;;4992763;28;20306;-53
2023/08/08 10:50:00;;;;;;;0.40;0.40;;;26.60;98.20;;;;;;4994943;28;20212;-59
2023/08/08 10:52:27;;;;;;;0.97;0.60;;;26.20;98.40;;;;;;4994675;28;20215;-56
2023/08/08 10:54:55;;;;;;;1.00;0.80;;;26.00;98.30;;;;;;4993362;28;20204;-58
2023/08/08 10:57:26;;;;;;;1.80;0.47;;;25.60;99.90;;;;;;4992052;28;20218;-60
2023/08/08 10:59:53;;;;;;;0.97;0.40;;;25.40;99.10;;;;;;4990093;28;20211;-58
2023/08/08 11:02:21;;;;;;;0.50;0.50;;;25.30;97.80;;;;;;4995173;28;20200;-59
2023/08/08 11:04:50;;;;;;;0.43;0.30;;;25.20;97.60;;;;;;4996129;28;20215;-60
2023/08/08 11:07:18;;;;;;;0.70;0.70;;;25.10;98.40;;;;;;4989963;28;20265;-58
2023/08/08 11:09:45;;;;;;;0.50;0.50;;;24.40;98.70;;;;;;4993927;28;20198;-58
2023/08/08 11:12:16;;;;;;;0.33;0.33;;;24.10;99.90;;;;;;4996556;28;20249;-60
2023/08/08 11:14:43;;;;;;;1.17;0.47;;;23.80;98.50;;;;;;4989704;28;20626;-60
2023/08/08 11:17:12;;;;;;;1.23;0.40;;;23.30;99.80;;;;;;4986808;28;20282;-61
2023/08/08 11:19:42;;;;;;;0.50;0.50;;;22.90;99.50;;;;;;4991771;28;20263;-50
2023/08/08 11:22:12;;;;;;;0.80;0.60;;;22.70;99.90;;;;;;4992126;28;20275;-51
2023/08/08 11:24:41;;;;;;;0.40;0.40;;;22.40;99.90;;;;;;4992614;28;20736;-50
2023/08/08 11:27:08;;;;;;;0.80;0.50;;;22.20;99.90;;;;;;4992172;28;20282;-50
2023/08/08 11:29:35;;;;;;;1.33;0.70;;;22.10;99.90;;;;;;4993200;28;20227;-51
2023/08/08 11:32:04;;;;;;;1.90;0.50;;;22.00;99.90;;;;;;4992129;28;20641;-49
2023/08/08 11:34:32;;;;;;;0.63;0.50;;;22.00;99.90;;;;;;4991054;28;20203;-49
2023/08/08 11:37:00;;;;;;;1.13;0.30;;;21.90;99.90;;;;;;4995647;28;20211;-49
2023/08/08 11:39:28;;;;;;;2.00;0.60;;;21.90;99.90;;;;;;4994719;28;20228;-49
2023/08/08 11:41:57;;;;;;;1.23;0.80;;;21.70;99.90;;;;;;4990846;28;20250;-49
2023/08/08 11:44:24;;;;;;;1.90;0.57;;;21.60;99.90;;;;;;4989753;28;20203;-49
2023/08/08 11:46:51;;;;;;;0.47;0.47;;;21.60;99.90;;;;;;4987795;28;20200;-49
2023/08/08 11:49:19;;;;;;;1.00;0.63;;;21.80;99.90;;;;;;4993309;28;20653;-49
2023/08/08 11:51:46;;;;;;;0.93;0.70;;;22.00;99.90;;;;;;4990417;28;20203;-49
2023/08/08 11:54:15;;;;;;;12.03;1.17;;;22.30;99.90;;;;;;4993353;28;20199;-49
2023/08/08 11:56:42;;;;;;;1.17;0.50;;;22.20;99.90;;;;;;4997324;28;20249;-49
2023/08/08 11:59:12;;;;;;;0.53;0.50;;;22.20;99.90;;;;;;4991437;28;20231;-49
2023/08/08 12:01:39;;;;;;;3.03;0.60;;;22.10;99.90;;;;;;4988914;28;20250;-49
2023/08/08 12:04:07;;;;;;;0.57;0.57;;;22.10;99.90;;;;;;4993424;28;20702;-49
2023/08/08 12:06:37;;;;;;;1.20;1.20;;;21.90;99.90;;;;;;4994401;28;20207;-49
2023/08/08 12:09:04;;;;;;;0.60;0.60;;;21.50;99.90;;;;;;4989888;28;20290;-49
2023/08/08 12:11:36;;;;;;;1.67;0.90;;;21.40;99.90;;;;;;4990778;28;20720;-49
2023/08/08 12:14:03;;;;;;;0.87;0.60;;;21.50;99.90;;;;;;4997780;28;20207;-49
2023/08/08 12:16:32;;;;;;;0.53;0.40;;;21.50;99.90;;;;;;4991321;28;20203;-50
2023/08/08 12:19:01;;;;;;;1.23;0.63;;;21.30;99.90;;;;;;4998038;28;20227;-49
2023/08/08 12:21:27;;;;;;;1.70;0.60;;;21.40;99.90;;;;;;4991659;28;20578;-49
2023/08/08 12:23:54;;;;;;;2.83;0.73;;;21.60;99.90;;;;;;4998191;28;20227;-49
2023/08/08 12:26:21;;;;;;;0.70;0.60;;;21.60;99.90;;;;;;5003545;28;20204;-49
2023/08/08 12:28:50;;;;;;;2.30;0.60;;;21.70;99.90;;;;;;5002941;28;20300;-50
2023/08/08 12:31:17;;;;;;;0.53;0.50;;;21.70;99.90;;;;;;4985143;28;20195;-49
2023/08/08 12:33:45;;;;;;;1.43;0.87;;;21.90;99.90;;;;;;4993656;28;20204;-49
2023/08/08 12:36:13;;;;;;;0.57;0.50;;;22.10;99.90;;;;;;4990591;28;20227;-49
2023/08/08 12:38:40;;;;;;;0.63;0.63;;;22.20;99.90;;;;;;4991097;28;20231;-49
2023/08/08 12:41:07;;;;;;;3.13;0.70;;;22.40;99.90;;;;;;4995431;28;20617;-49
2023/08/08 12:43:34;;;;;;;2.07;0.80;;;22.50;99.90;;;;;;4991597;28;20199;-49
2023/08/08 12:46:01;;;;;;;2.50;0.93;;;22.50;99.90;;;;;;4993543;28;20390;-49
2023/08/08 12:48:28;;;;;;;1.07;0.70;;;22.40;99.90;;;;;;4996392;28;20653;-49
2023/08/08 12:50:56;;;;;;;1.33;0.80;;;22.60;99.90;;;;;;4992379;28;20195;-50
2023/08/08 12:53:23;;;;;;;0.93;0.50;;;22.70;99.90;;;;;;4999143;28;20207;-49